Time;durP1;ratioP1;P1;durP2;ratioP2;P2;SDS_P1;SDS_P2;PMS_P1;PMS_P2;Temp;Humidity;BMP_temperature;BMP_pressure;BME280_temperature;BME280_humidity;BME280_pressure;Samples;Min_cycle;Max_cycle;Signal;HPM_P1;HPM_P2
2023/05/08 00:01:11;;;;;;;;;;;;;;;12.85;43.34;101643.00;4902073;28;99249;-75
2023/05/08 00:03:37;;;;;;;;;;;;;;;12.84;43.19;101639.50;4924108;28;98146;-75
2023/05/08 00:06:06;;;;;;;;;;;;;;;12.83;43.36;101637.06;4920381;28;98128;-75
2023/05/08 00:08:32;;;;;;;;;;;;;;;12.81;43.15;101639.19;4904853;28;98208;-75
2023/05/08 00:10:58;;;;;;;;;;;;;;;12.79;43.34;101639.44;4912665;28;97937;-75
2023/05/08 00:13:25;;;;;;;;;;;;;;;12.76;43.26;101637.25;4945232;28;98290;-75
2023/05/08 00:15:54;;;;;;;;;;;;;;;12.75;43.13;101633.72;4902971;28;98558;-75
2023/05/08 00:18:23;;;;;;;;;;;;;;;12.73;43.22;101641.28;4906226;28;100962;-76
2023/05/08 00:20:52;;;;;;;;;;;;;;;12.72;43.21;101638.81;4906265;28;101575;-75
2023/05/08 00:23:21;;;;;;;;;;;;;;;12.71;43.18;101643.41;4926087;28;98121;-76
2023/05/08 00:25:52;;;;;;;;;;;;;;;12.69;43.29;101642.88;4937536;28;98063;-75
2023/05/08 00:28:19;;;;;;;;;;;;;;;12.68;43.31;101645.81;4908521;28;98486;-75
2023/05/08 00:30:49;;;;;;;;;;;;;;;12.65;43.33;101646.31;4919028;28;98664;-76
2023/05/08 00:33:17;;;;;;;;;;;;;;;12.63;43.19;101643.03;4903109;28;98348;-76
2023/05/08 00:35:46;;;;;;;;;;;;;;;12.62;43.24;101646.84;4923171;28;98072;-76
2023/05/08 00:38:13;;;;;;;;;;;;;;;12.61;43.07;101646.00;4922182;28;98316;-75
2023/05/08 00:40:40;;;;;;;;;;;;;;;12.59;43.27;101639.22;4950928;28;98151;-76
2023/05/08 00:43:11;;;;;;;;;;;;;;;12.57;43.21;101638.63;4921044;28;98028;-75
2023/05/08 00:45:39;;;;;;;;;;;;;;;12.55;43.36;101638.91;4912550;28;97915;-75
2023/05/08 00:48:06;;;;;;;;;;;;;;;12.54;43.33;101639.97;4903901;28;98250;-75
2023/05/08 00:50:33;;;;;;;;;;;;;;;12.53;43.26;101641.03;4901543;28;98235;-75
2023/05/08 00:53:01;;;;;;;;;;;;;;;12.52;43.27;101639.41;4932802;28;98038;-75
2023/05/08 00:55:30;;;;;;;;;;;;;;;12.50;43.31;101642.38;4923116;28;97901;-75
2023/05/08 00:57:56;;;;;;;;;;;;;;;12.49;43.18;101639.88;4906073;28;98253;-75
2023/05/08 01:00:23;;;;;;;;;;;;;;;12.47;43.15;101636.63;4922184;28;99780;-75
2023/05/08 01:02:53;;;;;;;;;;;;;;;12.44;43.29;101629.84;4921335;28;99233;-75
2023/05/08 01:05:23;;;;;;;;;;;;;;;12.42;43.26;101628.47;4908575;28;98203;-76
2023/05/08 01:07:51;;;;;;;;;;;;;;;12.42;43.39;101629.28;4919606;28;98083;-75
2023/05/08 01:10:20;;;;;;;;;;;;;;;12.39;43.12;101624.38;4908554;28;98513;-75
2023/05/08 01:12:57;;;;;;;;;;;;;;;12.39;43.27;101628.97;4904574;28;100814;-75
2023/05/08 01:15:35;;;;;;;;;;;;;;;12.37;43.17;101629.19;4915097;28;99828;-75
2023/05/08 01:18:11;;;;;;;;;;;;;;;12.37;43.27;101633.78;4918675;28;98209;-76
2023/05/08 01:20:47;;;;;;;;;;;;;;;12.34;43.15;101629.72;4917476;28;98214;-75
2023/05/08 01:23:50;;;;;;;;;;;;;;;12.33;43.37;101629.97;4919743;28;98320;-76
2023/05/08 01:26:45;;;;;;;;;;;;;;;12.31;43.44;101632.94;4927393;28;98242;-75
2023/05/08 01:29:48;;;;;;;;;;;;;;;12.30;43.18;101634.00;4903187;28;99117;-75
2023/05/08 01:32:21;;;;;;;;;;;;;;;12.27;43.20;101640.72;4914230;28;98307;-75
2023/05/08 01:35:08;;;;;;;;;;;;;;;12.27;43.24;101637.19;4933175;28;98075;-76
2023/05/08 01:38:00;;;;;;;;;;;;;;;12.24;43.29;101641.22;4921237;28;98294;-76
2023/05/08 01:40:35;;;;;;;;;;;;;;;12.22;43.33;101643.34;4904863;28;98071;-76
2023/05/08 01:43:25;;;;;;;;;;;;;;;12.21;42.93;101651.69;4930326;28;98045;-75
2023/05/08 01:45:53;;;;;;;;;;;;;;;12.19;42.98;101651.97;4919546;28;99880;-75
2023/05/08 01:48:29;;;;;;;;;;;;;;;12.18;43.38;101641.38;4899630;28;98174;-75
2023/05/08 01:50:59;;;;;;;;;;;;;;;12.16;43.25;101638.94;4914668;28;98092;-75
2023/05/08 01:53:36;;;;;;;;;;;;;;;12.14;43.18;101641.06;4915847;28;98146;-75
2023/05/08 01:56:06;;;;;;;;;;;;;;;12.15;43.21;101644.59;4917268;28;98285;-75
2023/05/08 01:58:33;;;;;;;;;;;;;;;12.12;43.42;101642.38;4931674;28;98176;-76
2023/05/08 02:01:01;;;;;;;;;;;;;;;12.11;43.27;101640.75;4903005;28;98130;-75
2023/05/08 02:03:27;;;;;;;;;;;;;;;12.09;43.30;101642.88;4902454;28;98212;-75
2023/05/08 02:05:54;;;;;;;;;;;;;;;12.07;43.41;101639.63;4915696;28;98170;-75
2023/05/08 02:08:22;;;;;;;;;;;;;;;12.05;43.28;101637.16;4915748;28;101725;-75
2023/05/08 02:10:50;;;;;;;;;;;;;;;12.04;43.19;101640.94;4900829;28;98665;-76
2023/05/08 02:13:18;;;;;;;;;;;;;;;12.02;43.30;101643.91;4906214;28;99265;-75
2023/05/08 02:15:49;;;;;;;;;;;;;;;12.01;43.35;101644.94;4921843;28;98044;-75
2023/05/08 02:18:17;;;;;;;;;;;;;;;11.99;43.35;101641.69;4923084;28;98330;-75
2023/05/08 02:20:45;;;;;;;;;;;;;;;11.97;43.28;101646.50;4933315;28;98319;-75
2023/05/08 02:23:14;;;;;;;;;;;;;;;11.97;43.18;101651.09;4915317;28;99563;-75
2023/05/08 02:25:40;;;;;;;;;;;;;;;11.95;43.33;101654.06;4920327;28;98424;-76
2023/05/08 02:28:07;;;;;;;;;;;;;;;11.93;43.52;101658.06;4909189;28;98170;-76
2023/05/08 02:30:35;;;;;;;;;;;;;;;11.91;43.28;101655.63;4917169;28;98464;-75
2023/05/08 02:33:07;;;;;;;;;;;;;;;11.90;43.29;101647.75;4904611;28;98150;-75
2023/05/08 02:35:35;;;;;;;;;;;;;;;11.89;43.22;101644.22;4902306;28;98161;-75
2023/05/08 02:38:09;;;;;;;;;;;;;;;11.88;43.40;101649.88;4919387;28;98419;-74
2023/05/08 02:40:39;;;;;;;;;;;;;;;11.86;43.33;101654.69;4904618;28;97901;-75
2023/05/08 02:43:07;;;;;;;;;;;;;;;11.84;43.19;101660.38;4922018;28;98130;-75
2023/05/08 02:45:50;;;;;;;;;;;;;;;11.84;43.30;101662.25;4918377;28;99002;-75
2023/05/08 02:48:30;;;;;;;;;;;;;;;11.80;43.29;101654.59;4919442;28;101238;-76
2023/05/08 02:51:13;;;;;;;;;;;;;;;11.79;43.37;101663.78;4904352;28;98960;-75
2023/05/08 02:53:54;;;;;;;;;;;;;;;11.78;43.29;101656.72;4932487;28;98604;-76
2023/05/08 02:56:32;;;;;;;;;;;;;;;11.77;43.38;101659.69;4893667;28;98664;-76
2023/05/08 02:59:05;;;;;;;;;;;;;;;11.75;43.24;101650.97;4940224;28;98374;-75
2023/05/08 03:01:37;;;;;;;;;;;;;;;11.73;43.41;101656.66;4935095;28;98229;-75
2023/05/08 03:04:09;;;;;;;;;;;;;;;11.73;43.71;101653.13;4922806;28;98738;-75
2023/05/08 03:06:45;;;;;;;;;;;;;;;11.71;43.26;101652.53;4918304;28;98152;-75
2023/05/08 03:09:17;;;;;;;;;;;;;;;11.70;43.52;101659.00;4953965;28;99127;-75
2023/05/08 03:11:44;;;;;;;;;;;;;;;11.68;43.09;101661.97;4919356;28;99369;-76
2023/05/08 03:14:11;;;;;;;;;;;;;;;11.68;43.43;101658.47;4906026;28;98085;-76
2023/05/08 03:16:39;;;;;;;;;;;;;;;11.66;43.38;101661.38;4923486;28;98283;-75
2023/05/08 03:19:10;;;;;;;;;;;;;;;11.66;43.45;101664.09;4922980;28;98434;-75
2023/05/08 03:21:38;;;;;;;;;;;;;;;11.65;42.93;101664.34;4938446;28;100557;-75
2023/05/08 03:24:08;;;;;;;;;;;;;;;11.65;43.03;101664.34;4924717;28;99787;-76
2023/05/08 03:26:38;;;;;;;;;;;;;;;11.64;43.39;101670.81;4925588;28;99358;-75
2023/05/08 03:29:05;;;;;;;;;;;;;;;11.62;43.61;101656.72;4956500;28;98430;-75
2023/05/08 03:31:33;;;;;;;;;;;;;;;11.63;43.18;101661.91;4922303;28;98249;-75
2023/05/08 03:34:01;;;;;;;;;;;;;;;11.62;43.42;101657.53;4906798;28;98230;-75
2023/05/08 03:36:27;;;;;;;;;;;;;;;11.61;43.35;101658.63;4924127;28;98602;-75
2023/05/08 03:38:55;;;;;;;;;;;;;;;11.61;43.30;101653.22;4928009;28;98472;-75
2023/05/08 03:41:24;;;;;;;;;;;;;;;11.61;43.17;101653.22;4924449;28;99274;-75
2023/05/08 03:43:50;;;;;;;;;;;;;;;11.61;43.23;101655.91;4926237;28;98297;-75
2023/05/08 03:46:18;;;;;;;;;;;;;;;11.61;43.19;101663.19;4928640;28;98921;-75
2023/05/08 03:48:45;;;;;;;;;;;;;;;11.60;43.40;101656.97;4925521;28;98443;-75
2023/05/08 03:51:14;;;;;;;;;;;;;;;11.61;43.15;101661.31;4928606;28;98058;-75
2023/05/08 03:53:41;;;;;;;;;;;;;;;11.62;43.13;101664.84;4944060;28;98169;-75
2023/05/08 03:56:10;;;;;;;;;;;;;;;11.61;43.11;101672.13;4942203;28;99483;-76
2023/05/08 03:58:44;;;;;;;;;;;;;;;11.63;43.36;101666.47;4923799;28;99459;-75
2023/05/08 04:01:40;;;;;;;;;;;;;;;11.63;43.23;101672.72;4925367;28;98314;-75
2023/05/08 04:04:23;;;;;;;;;;;;;;;11.64;43.15;101671.63;4906156;28;98595;-75
2023/05/08 04:07:09;;;;;;;;;;;;;;;11.65;43.27;101680.56;4921183;28;98167;-75
2023/05/08 04:09:59;;;;;;;;;;;;;;;11.66;43.05;101683.00;4927392;28;98506;-76
2023/05/08 04:12:29;;;;;;;;;;;;;;;11.67;42.99;101690.06;4923491;28;98527;-76
2023/05/08 04:15:01;;;;;;;;;;;;;;;11.69;43.14;101695.19;4955947;28;98184;-76
2023/05/08 04:17:43;;;;;;;;;;;;;;;11.70;43.09;101689.53;4924900;28;98561;-76
2023/05/08 04:20:13;;;;;;;;;;;;;;;11.72;43.27;101686.63;4926642;28;98190;-76
2023/05/08 04:22:42;;;;;;;;;;;;;;;11.74;43.22;101692.56;4939197;28;100072;-76
2023/05/08 04:25:09;;;;;;;;;;;;;;;11.75;43.14;101702.31;4924167;28;98228;-75
2023/05/08 04:27:35;;;;;;;;;;;;;;;11.77;43.05;101695.59;4922873;28;97877;-76
2023/05/08 04:30:05;;;;;;;;;;;;;;;11.78;43.33;101696.41;4955020;28;99554;-76
2023/05/08 04:32:33;;;;;;;;;;;;;;;11.80;43.10;101697.00;4909171;28;99391;-76
2023/05/08 04:35:00;;;;;;;;;;;;;;;11.81;43.28;101695.94;4922961;28;98421;-75
2023/05/08 04:37:32;;;;;;;;;;;;;;;11.84;43.27;101702.78;4942399;28;98444;-76
2023/05/08 04:40:00;;;;;;;;;;;;;;;11.85;43.31;101693.59;4911008;28;98320;-76
2023/05/08 04:42:27;;;;;;;;;;;;;;;11.87;43.07;101700.41;4925721;28;98284;-76
2023/05/08 04:44:54;;;;;;;;;;;;;;;11.91;42.83;101708.84;4903350;28;98331;-75
2023/05/08 04:47:22;;;;;;;;;;;;;;;11.93;43.23;101706.69;4902912;28;98237;-76
2023/05/08 04:49:50;;;;;;;;;;;;;;;11.97;42.90;101705.13;4901061;28;98014;-76
2023/05/08 04:52:18;;;;;;;;;;;;;;;12.00;43.08;101712.75;4904655;28;100148;-76
2023/05/08 04:54:46;;;;;;;;;;;;;;;12.04;42.89;101720.13;4918820;28;98667;-76
2023/05/08 04:57:16;;;;;;;;;;;;;;;12.10;42.87;101720.19;4919690;28;98340;-75
2023/05/08 04:59:45;;;;;;;;;;;;;;;12.18;42.86;101725.16;4921498;28;98425;-76
2023/05/08 05:02:13;;;;;;;;;;;;;;;12.24;42.83;101725.00;4937433;28;98197;-76
2023/05/08 05:04:40;;;;;;;;;;;;;;;12.33;42.59;101720.00;4939421;28;98070;-76
2023/05/08 05:07:07;;;;;;;;;;;;;;;12.43;42.63;101727.44;4935635;28;98106;-76
2023/05/08 05:09:35;;;;;;;;;;;;;;;12.53;42.71;101716.75;4902299;28;98282;-76
2023/05/08 05:12:06;;;;;;;;;;;;;;;12.64;42.51;101725.81;4899103;28;99472;-76
2023/05/08 05:14:34;;;;;;;;;;;;;;;12.78;42.49;101721.69;4922193;28;99013;-75
2023/05/08 05:17:02;;;;;;;;;;;;;;;12.90;42.41;101730.50;4923793;28;98339;-75
2023/05/08 05:19:29;;;;;;;;;;;;;;;13.03;42.41;101729.28;4926654;28;98382;-75
2023/05/08 05:22:01;;;;;;;;;;;;;;;13.18;42.27;101723.22;4923174;28;98546;-75
2023/05/08 05:24:34;;;;;;;;;;;;;;;13.32;41.97;101721.78;4924087;28;98204;-75
2023/05/08 05:27:05;;;;;;;;;;;;;;;13.47;42.05;101727.34;4922489;28;98107;-75
2023/05/08 05:29:32;;;;;;;;;;;;;;;13.63;42.03;101731.00;4942809;28;98644;-75
2023/05/08 05:32:02;;;;;;;;;;;;;;;13.80;42.12;101727.38;4927115;28;98179;-75
2023/05/08 05:34:30;;;;;;;;;;;;;;;13.95;41.66;101732.91;4919902;28;98236;-75
2023/05/08 05:36:58;;;;;;;;;;;;;;;14.12;41.93;101730.06;4921646;28;98283;-76
2023/05/08 05:39:27;;;;;;;;;;;;;;;14.27;41.76;101726.66;4924368;28;98163;-75
2023/05/08 05:41:54;;;;;;;;;;;;;;;14.44;41.76;101727.28;4937909;28;98131;-75
2023/05/08 05:44:26;;;;;;;;;;;;;;;14.62;41.87;101723.31;4925647;28;98569;-75
2023/05/08 05:46:56;;;;;;;;;;;;;;;14.81;41.47;101724.50;4939443;28;98046;-75
2023/05/08 05:49:24;;;;;;;;;;;;;;;15.03;41.48;101727.03;4920383;28;98109;-76
2023/05/08 05:51:55;;;;;;;;;;;;;;;15.25;41.42;101731.44;4920261;28;98659;-75
2023/05/08 05:54:25;;;;;;;;;;;;;;;15.45;41.23;101736.94;4926505;28;98726;-75
2023/05/08 05:56:54;;;;;;;;;;;;;;;15.66;41.17;101733.16;4911189;28;98011;-76
2023/05/08 05:59:23;;;;;;;;;;;;;;;15.89;40.95;101726.38;4924925;28;98732;-75
2023/05/08 06:01:51;;;;;;;;;;;;;;;16.15;40.80;101729.91;4958910;28;98244;-75
2023/05/08 06:04:19;;;;;;;;;;;;;;;16.43;40.80;101731.19;4925042;28;97867;-75
2023/05/08 06:06:45;;;;;;;;;;;;;;;16.76;40.59;101728.94;4920070;28;98087;-76
2023/05/08 06:09:13;;;;;;;;;;;;;;;17.14;40.47;101730.13;4921766;28;98212;-76
2023/05/08 06:11:42;;;;;;;;;;;;;;;17.57;40.24;101738.59;4924818;28;98323;-75
2023/05/08 06:14:13;;;;;;;;;;;;;;;17.91;40.33;101733.16;4921850;28;98163;-76
2023/05/08 06:16:43;;;;;;;;;;;;;;;18.35;40.08;101725.91;4909873;28;98099;-75
2023/05/08 06:19:11;;;;;;;;;;;;;;;18.75;39.93;101734.78;4926685;28;98284;-75
2023/05/08 06:21:38;;;;;;;;;;;;;;;18.98;40.02;101733.09;4907886;28;98444;-76
2023/05/08 06:24:08;;;;;;;;;;;;;;;19.44;39.69;101735.22;4922237;28;98091;-75
2023/05/08 06:26:35;;;;;;;;;;;;;;;19.99;39.34;101729.97;4940453;28;97854;-76
2023/05/08 06:29:02;;;;;;;;;;;;;;;20.58;39.05;101740.09;4923863;28;98885;-77
2023/05/08 06:31:29;;;;;;;;;;;;;;;21.13;38.82;101738.44;4942955;28;98409;-77
2023/05/08 06:33:56;;;;;;;;;;;;;;;21.70;38.54;101730.56;4902898;28;98601;-78
2023/05/08 06:36:26;;;;;;;;;;;;;;;22.11;38.42;101726.75;4922251;28;98213;-77
2023/05/08 06:38:56;;;;;;;;;;;;;;;22.52;38.31;101738.31;4908378;28;98329;-77
2023/05/08 06:41:22;;;;;;;;;;;;;;;22.95;38.26;101734.06;4944438;28;97834;-77
2023/05/08 06:43:51;;;;;;;;;;;;;;;23.23;38.26;101740.09;4921903;28;98090;-77
2023/05/08 06:46:20;;;;;;;;;;;;;;;23.40;38.58;101740.09;4920906;28;98188;-76
2023/05/08 06:48:47;;;;;;;;;;;;;;;23.53;38.77;101730.06;4922788;28;98240;-77
2023/05/08 06:51:14;;;;;;;;;;;;;;;23.77;38.61;101738.63;4908811;28;98970;-80
2023/05/08 06:53:45;;;;;;;;;;;;;;;24.19;38.21;101746.31;4912479;28;98168;-78
2023/05/08 06:56:13;;;;;;;;;;;;;;;24.52;38.13;101738.28;4929767;28;98151;-80
2023/05/08 06:58:42;;;;;;;;;;;;;;;24.83;38.10;101742.66;4924470;28;97897;-81
2023/05/08 07:01:11;;;;;;;;;;;;;;;25.14;38.35;101743.13;4930395;28;98507;-78
2023/05/08 07:03:44;;;;;;;;;;;;;;;25.46;38.19;101738.81;4927624;28;98010;-78
2023/05/08 07:06:14;;;;;;;;;;;;;;;25.83;38.12;101732.66;4939442;28;98366;-79
2023/05/08 07:08:42;;;;;;;;;;;;;;;26.19;37.68;101729.97;4924154;28;98157;-78
2023/05/08 07:11:11;;;;;;;;;;;;;;;26.58;37.51;101737.97;4910064;28;98241;-78
2023/05/08 07:13:40;;;;;;;;;;;;;;;26.99;37.27;101731.34;4942999;28;97961;-81
2023/05/08 07:16:10;;;;;;;;;;;;;;;27.43;37.29;101734.25;4929073;28;98980;-78
2023/05/08 07:18:45;;;;;;;;;;;;;;;27.86;36.99;101733.53;4913469;28;98392;-79
2023/05/08 07:21:16;;;;;;;;;;;;;;;28.31;36.96;101737.03;4921363;28;98788;-79
2023/05/08 07:23:43;;;;;;;;;;;;;;;28.61;37.20;101727.13;4924402;28;98566;-80
2023/05/08 07:26:13;;;;;;;;;;;;;;;29.03;36.71;101726.50;4925986;28;97908;-82
2023/05/08 07:28:40;;;;;;;;;;;;;;;29.41;36.76;101724.91;4926484;28;98071;-81
2023/05/08 07:31:11;;;;;;;;;;;;;;;29.79;36.42;101734.38;4925945;28;98594;-82
2023/05/08 07:33:39;;;;;;;;;;;;;;;30.18;36.42;101725.97;4903857;28;98054;-81
2023/05/08 07:36:08;;;;;;;;;;;;;;;30.54;36.36;101727.38;4928613;28;97992;-82
2023/05/08 07:38:35;;;;;;;;;;;;;;;30.93;36.28;101722.41;4928698;28;98866;-81
2023/05/08 07:41:06;;;;;;;;;;;;;;;31.37;36.43;101727.34;4910346;28;98117;-81
2023/05/08 07:43:35;;;;;;;;;;;;;;;31.87;35.72;101724.31;4926615;28;98170;-80
2023/05/08 07:46:02;;;;;;;;;;;;;;;32.34;35.59;101723.53;4929086;28;98116;-79
2023/05/08 07:48:34;;;;;;;;;;;;;;;32.81;35.38;101724.66;4906913;28;97944;-80
2023/05/08 07:51:01;;;;;;;;;;;;;;;33.34;35.17;101726.16;4926548;28;98309;-81
2023/05/08 07:53:34;;;;;;;;;;;;;;;33.89;34.98;101725.91;4943864;28;99117;-80
2023/05/08 07:56:05;;;;;;;;;;;;;;;34.52;35.03;101715.16;4910980;28;98473;-81
2023/05/08 07:58:35;;;;;;;;;;;;;;;35.11;34.70;101713.41;4940819;28;98124;-80
2023/05/08 08:01:04;;;;;;;;;;;;;;;35.73;34.61;101711.09;4923946;28;98424;-81
2023/05/08 08:03:32;;;;;;;;;;;;;;;36.36;34.13;101704.16;4921853;28;98646;-81
2023/05/08 08:05:59;;;;;;;;;;;;;;;37.09;34.09;101714.22;4921391;28;98712;-80
2023/05/08 08:08:27;;;;;;;;;;;;;;;37.86;33.61;101704.31;4925479;28;97804;-81
2023/05/08 08:10:54;;;;;;;;;;;;;;;38.66;33.05;101710.16;4921948;28;98010;-81
2023/05/08 08:13:23;;;;;;;;;;;;;;;39.40;33.04;101702.19;4910006;28;98168;-80
2023/05/08 08:15:53;;;;;;;;;;;;;;;40.13;32.66;101700.06;4909367;28;98148;-79
2023/05/08 08:18:22;;;;;;;;;;;;;;;40.91;32.46;101696.28;4924873;28;97912;-80
2023/05/08 08:20:48;;;;;;;;;;;;;;;41.70;32.14;101697.53;4925484;28;98010;-83
2023/05/08 08:23:15;;;;;;;;;;;;;;;42.58;31.85;101697.75;4940518;28;97930;-83
2023/05/08 08:25:45;;;;;;;;;;;;;;;43.35;31.70;101695.22;4921320;28;98009;-78
2023/05/08 08:28:12;;;;;;;;;;;;;;;44.00;31.45;101690.53;4902560;28;99711;-84
2023/05/08 08:30:39;;;;;;;;;;;;;;;44.75;31.08;101690.06;4959221;28;98008;-81
2023/05/08 08:33:10;;;;;;;;;;;;;;;45.43;30.75;101684.78;4925466;28;99658;-78
2023/05/08 08:35:41;;;;;;;;;;;;;;;46.03;31.07;101680.19;4903126;28;98048;-77
2023/05/08 08:38:10;;;;;;;;;;;;;;;46.60;30.69;101687.75;4937765;28;97885;-85
2023/05/08 08:40:42;;;;;;;;;;;;;;;47.02;30.70;101681.00;4905216;28;100026;-85
2023/05/08 08:43:11;;;;;;;;;;;;;;;47.70;30.79;101672.94;4943187;28;98222;-85
2023/05/08 08:45:42;;;;;;;;;;;;;;;48.48;30.40;101671.53;4923114;28;98077;-84
2023/05/08 08:48:12;;;;;;;;;;;;;;;49.30;30.14;101669.09;4938187;28;97930;-78
2023/05/08 08:50:43;;;;;;;;;;;;;;;49.77;29.80;101663.88;4905922;28;97974;-79
2023/05/08 08:53:26;;;;;;;;;;;;;;;50.39;29.69;101661.19;4940268;28;98161;-84
2023/05/08 08:55:59;;;;;;;;;;;;;;;50.86;29.83;101656.53;4926760;28;97964;-79
2023/05/08 08:58:42;;;;;;;;;;;;;;;51.49;29.37;101664.50;4918226;28;98400;-79
2023/05/08 09:01:14;;;;;;;;;;;;;;;51.98;29.58;101664.84;4941044;28;99028;-78
2023/05/08 09:03:41;;;;;;;;;;;;;;;52.46;29.18;101651.97;4921837;28;97951;-85
2023/05/08 09:06:13;;;;;;;;;;;;;;;52.98;29.17;101653.09;4923121;28;98341;-78
2023/05/08 09:08:40;;;;;;;;;;;;;;;53.43;28.83;101644.00;4940544;28;99242;-85
2023/05/08 09:11:10;;;;;;;;;;;;;;;53.64;28.96;101644.25;4925359;28;97970;-85
2023/05/08 09:13:42;;;;;;;;;;;;;;;53.96;28.92;101638.56;4905888;28;98190;-78
2023/05/08 09:16:09;;;;;;;;;;;;;;;54.33;28.80;101628.34;4937679;28;97983;-86
2023/05/08 09:18:36;;;;;;;;;;;;;;;53.63;29.64;101626.19;4904111;28;98204;-74
2023/05/08 09:21:08;;;;;;;;;;;;;;;52.49;30.32;101625.03;4927087;28;98315;-74
2023/05/08 09:23:57;;;;;;;;;;;;;;;51.44;30.98;101618.59;4922690;28;98731;-85
2023/05/08 09:26:38;;;;;;;;;;;;;;;50.60;31.57;101613.81;4925325;28;97793;-80
2023/05/08 09:29:18;;;;;;;;;;;;;;;50.33;32.01;101621.84;4941085;28;98089;-83
2023/05/08 09:31:47;;;;;;;;;;;;;;;50.65;31.29;101615.09;4942176;28;98697;-75
2023/05/08 09:34:26;;;;;;;;;;;;;;;51.33;30.09;101610.03;4922763;28;98269;-75
2023/05/08 09:36:55;;;;;;;;;;;;;;;51.83;29.53;101623.38;4921213;28;98133;-75
2023/05/08 09:39:23;;;;;;;;;;;;;;;52.42;29.08;101607.59;4908347;28;98506;-79
2023/05/08 09:42:04;;;;;;;;;;;;;;;52.88;28.84;101612.41;4909818;28;98087;-81
2023/05/08 09:44:50;;;;;;;;;;;;;;;52.92;28.89;101609.25;4939520;28;98157;-86
2023/05/08 09:47:21;;;;;;;;;;;;;;;53.50;28.02;101599.41;4941297;28;98312;-76
2023/05/08 09:50:07;;;;;;;;;;;;;;;53.63;27.99;101593.75;4939781;28;98142;-85
2023/05/08 09:52:36;;;;;;;;;;;;;;;53.96;28.26;101598.25;4925988;28;98302;-85
2023/05/08 09:55:05;;;;;;;;;;;;;;;54.39;27.92;101585.75;4925256;28;98298;-77
2023/05/08 09:57:37;;;;;;;;;;;;;;;54.55;27.62;101593.34;4902368;28;98088;-77
2023/05/08 10:00:11;;;;;;;;;;;;;;;54.81;27.20;101586.84;4940411;28;98247;-75
2023/05/08 10:02:56;;;;;;;;;;;;;;;54.76;27.90;101598.50;4924187;28;98254;-79
2023/05/08 10:05:24;;;;;;;;;;;;;;;54.57;27.76;101592.81;4903064;28;98177;-80
2023/05/08 10:07:55;;;;;;;;;;;;;;;54.61;27.93;101584.63;4920767;28;98274;-76
2023/05/08 10:10:26;;;;;;;;;;;;;;;54.72;27.90;101586.50;4922113;28;97905;-84
2023/05/08 10:13:26;;;;;;;;;;;;;;;54.78;27.39;101585.06;5066203;27;97891;-78
2023/05/08 10:15:54;;;;;;;;;;;;;;;54.88;27.25;101586.19;4990677;27;100243;-76
2023/05/08 10:18:24;;;;;;;;;;;;;;;54.71;27.85;101584.94;5002440;27;98577;-81
2023/05/08 10:20:51;;;;;;;;;;;;;;;54.73;27.80;101585.94;4982743;27;99508;-78
2023/05/08 10:23:27;;;;;;;;;;;;;;;54.87;27.21;101578.09;5002973;27;100046;-81
2023/05/08 10:25:56;;;;;;;;;;;;;;;54.89;27.29;101581.19;5003486;27;98573;-78
2023/05/08 10:28:58;;;;;;;;;;;;;;;54.84;27.31;101577.06;4978811;27;98068;-78
2023/05/08 10:31:33;;;;;;;;;;;;;;;54.90;27.13;101568.31;5021036;27;99297;-76
2023/05/08 10:34:01;;;;;;;;;;;;;;;54.47;27.46;101568.59;5002411;27;98009;-78
2023/05/08 10:36:27;;;;;;;;;;;;;;;54.41;27.66;101571.59;5005397;27;98006;-72
2023/05/08 10:38:56;;;;;;;;;;;;;;;54.38;27.50;101566.91;5004935;27;98121;-88
2023/05/08 10:41:27;;;;;;;;;;;;;;;54.31;27.56;101564.69;4983440;27;98905;-88
2023/05/08 10:43:53;;;;;;;;;;;;;;;54.28;27.50;101565.78;4994319;27;98371;-76
2023/05/08 10:46:41;;;;;;;;;;;;;;;54.04;27.73;101544.41;5005689;27;98323;-77
2023/05/08 10:49:20;;;;;;;;;;;;;;;54.00;27.44;101558.34;5005282;27;98347;-79
2023/05/08 10:51:53;;;;;;;;;;;;;;;53.90;27.14;101549.38;5018442;27;98518;-79
2023/05/08 10:54:32;;;;;;;;;;;;;;;53.68;27.56;101550.44;5036129;27;98137;-87
2023/05/08 10:57:11;;;;;;;;;;;;;;;53.46;27.66;101548.66;5038504;27;100688;-77
2023/05/08 10:59:40;;;;;;;;;;;;;;;53.10;27.85;101548.09;5016685;27;98212;-80
2023/05/08 11:02:10;;;;;;;;;;;;;;;52.99;27.58;101537.50;5019389;27;98580;-79
2023/05/08 11:04:37;;;;;;;;;;;;;;;53.10;27.78;101538.66;4984904;27;98380;-78
2023/05/08 11:07:08;;;;;;;;;;;;;;;53.21;27.46;101541.38;5004021;27;97845;-79
2023/05/08 11:09:45;;;;;;;;;;;;;;;52.85;27.66;101541.56;4998058;27;98090;-79
2023/05/08 11:12:26;;;;;;;;;;;;;;;51.93;27.87;101533.50;5037208;27;98100;-79
2023/05/08 11:15:05;;;;;;;;;;;;;;;51.83;28.16;101529.38;5007827;27;98447;-79
2023/05/08 11:17:33;;;;;;;;;;;;;;;51.32;28.05;101526.00;5000687;27;98183;-86
2023/05/08 11:20:04;;;;;;;;;;;;;;;50.82;28.14;101522.00;4988623;27;98135;-78
2023/05/08 11:22:46;;;;;;;;;;;;;;;50.16;28.90;101528.56;5005017;27;98345;-80
2023/05/08 11:25:12;;;;;;;;;;;;;;;49.46;29.10;101519.56;4992297;27;98170;-80
2023/05/08 11:27:47;;;;;;;;;;;;;;;49.01;29.24;101524.28;4991572;27;101103;-78
2023/05/08 11:30:31;;;;;;;;;;;;;;;48.18;29.89;101526.81;5025444;27;99907;-86
2023/05/08 11:33:02;;;;;;;;;;;;;;;47.52;30.04;101524.00;5006479;27;98567;-87
2023/05/08 11:35:55;;;;;;;;;;;;;;;47.08;30.18;101517.22;4997955;27;98235;-81
2023/05/08 11:38:34;;;;;;;;;;;;;;;46.73;30.34;101511.53;4991652;27;99617;-78
2023/05/08 11:41:04;;;;;;;;;;;;;;;46.60;30.10;101516.78;4990016;27;98047;-87
2023/05/08 11:43:37;;;;;;;;;;;;;;;46.85;29.98;101518.16;4990410;27;100133;-79
2023/05/08 11:46:07;;;;;;;;;;;;;;;47.20;29.12;101518.16;5000775;27;97964;-85
2023/05/08 11:48:34;;;;;;;;;;;;;;;47.30;29.26;101516.72;4989436;27;98064;-78
2023/05/08 11:51:01;;;;;;;;;;;;;;;47.23;29.22;101514.31;4990788;27;97954;-78
2023/05/08 11:53:32;;;;;;;;;;;;;;;46.96;29.07;101516.28;4989812;27;98206;-85
2023/05/08 11:56:00;;;;;;;;;;;;;;;46.53;29.63;101508.59;4970632;27;98659;-79
2023/05/08 11:58:27;;;;;;;;;;;;;;;46.16;29.55;101500.47;4966707;27;98314;-78
2023/05/08 12:00:54;;;;;;;;;;;;;;;45.79;29.92;101503.69;4976474;27;98271;-79
2023/05/08 12:03:25;;;;;;;;;;;;;;;45.38;29.88;101503.38;4990296;27;98003;-77
2023/05/08 12:05:56;;;;;;;;;;;;;;;44.94;30.27;101511.72;4981028;27;98351;-84
2023/05/08 12:08:24;;;;;;;;;;;;;;;44.52;30.43;101506.84;4973521;27;98077;-81
2023/05/08 12:10:55;;;;;;;;;;;;;;;44.15;30.79;101500.47;4988203;27;98123;-79
2023/05/08 12:13:27;;;;;;;;;;;;;;;43.79;30.75;101491.53;4976939;27;97987;-79
2023/05/08 12:15:58;;;;;;;;;;;;;;;43.46;30.97;101499.88;5004435;27;97953;-79
2023/05/08 12:18:26;;;;;;;;;;;;;;;43.22;30.95;101493.22;4965340;27;98600;-80
2023/05/08 12:20:56;;;;;;;;;;;;;;;42.97;31.23;101511.25;4980670;27;98556;-79
2023/05/08 12:23:28;;;;;;;;;;;;;;;42.71;31.26;101502.97;4971522;27;98137;-78
2023/05/08 12:25:57;;;;;;;;;;;;;;;42.44;30.97;101506.47;4975469;27;98330;-78
2023/05/08 12:28:24;;;;;;;;;;;;;;;42.15;31.27;101501.09;4967999;27;98492;-79
2023/05/08 12:30:56;;;;;;;;;;;;;;;41.82;31.45;101495.84;4990379;27;98894;-83
2023/05/08 12:33:29;;;;;;;;;;;;;;;41.49;31.12;101494.59;4981992;27;98293;-92
2023/05/08 12:35:58;;;;;;;;;;;;;;;41.13;31.46;101504.28;4989823;27;98160;-93
2023/05/08 12:38:26;;;;;;;;;;;;;;;40.77;31.56;101494.13;4989772;27;99478;-81
2023/05/08 12:40:56;;;;;;;;;;;;;;;40.45;31.96;101473.31;4974338;27;98430;-80
2023/05/08 12:43:36;;;;;;;;;;;;;;;40.19;31.94;101486.59;4974844;27;99128;-78
2023/05/08 12:46:04;;;;;;;;;;;;;;;39.90;31.54;101488.66;4989191;27;98480;-79
2023/05/08 12:48:33;;;;;;;;;;;;;;;39.64;32.06;101482.88;4971611;27;98511;-80
2023/05/08 12:51:06;;;;;;;;;;;;;;;39.38;31.97;101487.59;4979760;27;100710;-85
2023/05/08 12:53:35;;;;;;;;;;;;;;;39.13;32.32;101484.59;4972744;27;98087;-84
2023/05/08 12:56:05;;;;;;;;;;;;;;;38.86;32.25;101480.00;4976896;27;98138;-81